CYYC

Calgary International Airport

Code ICAO CYYC
Code IATA YYC
Nom Calgary International Airport
Emplacement Calgary, Alberta, CA
Élévation 3557 pieds / 1084.2 mètres
Latitude 51.11389923
Longitude -114.01999664
METAR CYYC 080600Z 34024G34KT 15SM BKN021 BKN110 06/02 A2977 RMK SC5AC2 SLP104
Informations extras Afficher cartes et CFS
Afficher NOTAMS
Piste Longueur Largeur Surface Élévation
08 6200 ft 150 ft ASP 3531 ft
11 8000 ft 200 ft ASP 3547 ft
17L 14000 ft 200 ft Concrete 3606 ft
17R 12675 ft 200 ft ASP 3556 ft
26 6200 ft 150 ft ASP 3557 ft
29 8000 ft 200 ft ASP 3542 ft
35R 14000 ft 200 ft Concrete 3577 ft
35L 12675 ft 200 ft ASP 3543 ft